AirNav   Everest Fuels
 
 610 users online  

MS80 Hasting Airpark
Bruce, Mississippi, USA

GOING TO BRUCE?


FAA INFORMATION EFFECTIVE 22 APRIL 2021

Location

FAA Identifier: MS80
Lat/Long: 34-00-06.8600N 089-18-54.3400W
34-00.114333N 089-18.905667W
34.0019056,-89.3150944
(estimated)
Elevation: 275 ft. / 83.8 m (surveyed)
Variation: 02E (1985)
From city: 2 miles NE of BRUCE, MS
Time zone: UTC -5 (UTC -6 during Standard Time)
Zip code: 38915

Airport Operations

Airport use: Private use. Permission required prior to landing
Activation date: 10/1970
Control tower: no
ARTCC: MEMPHIS CENTER
FSS: GREENWOOD FLIGHT SERVICE STATION
Attendance: UNATNDD
Wind indicator: yes
Segmented circle: no
Lights: CALL 601-983-2275/4475.

Nearby radio navigation aids

VOR radial/distance  VOR name  Freq  Var
OTBr239/29.0TUPELO VOR/DME109.8004E

Airport Services

Parking: hangars and tiedowns
Airframe service: NONE
Powerplant service: NONE
Bottled oxygen: NONE
Bulk oxygen: NONE

Runway Information

Runway 18/36

Dimensions: 3200 x 80 ft. / 975 x 24 m
Surface: turf, in good condition
RWY SOFT WHEN WET.
Runway edge lights: low intensity
LIRL OTS INDEFLY
RUNWAY 18  RUNWAY 36
Traffic pattern: leftleft
Displaced threshold: 450 ft.
DSPLCD THR MARKED WITH TIRES PAINTED WHITE.
no
Obstructions: 84 ft. trees, 250 ft. from runway, 50 ft. left of centerline, 2:1 slope to clear
APCH RATIO 8:1 TO DSPLCD THR.
24 ft. trees, 100 ft. left and right of centerline
4 FT FENCE & BRUSH ON FENCE FROM +6 AT THR.

Airport Ownership and Management from official FAA records

Ownership: Privately-owned
Owner: JAMES M WADE
659 CR 418
CALHOUN CITY, MS 38916
Phone 662-628-5355
Manager: JAMES M WADE
659 CR 418
CALHOUN CITY, MS 38916
Phone 662-628-5355

Airport Operational Statistics

Aircraft based on the field: 2
Single engine airplanes: 2
    
Aircraft operations: avg 97/week *
83% local general aviation
17% transient general aviation
* for 12-month period ending 07 September 1995

Additional Remarks

FOR CD CTC MEMPHIS ARTCC AT 901-368-8453/8449.

Instrument Procedures

There are no published instrument procedures at MS80.

Some nearby airports with instrument procedures:

KUOX - University-Oxford Airport (25 nm NW)
KGNF - Grenada Municipal Airport (26 nm SW)
5A4 - Okolona Municipal Airport-Richard Stovall Field (29 nm E)
KTUP - Tupelo Regional Airport (31 nm NE)
M72 - New Albany-Union County Airport (36 nm NE)
 
Loc | Ops | Rwys | IFR | FBO | Links
Com | Nav | Svcs | Stats | Notes
Area around MS80 (Hasting Airpark)
 
Road maps at: MapQuest Bing Google
 
Aerial photo
No photo
 
Sectional chart

 
Airport distance calculator
Flying to Hasting Airpark? Find the distance to fly.

From to MS80

Sunrise and sunset
Times for 12-May-2021
 Local
(UTC-5)
 Zulu
(UTC)
Morning civil twilight05:3210:32
Sunrise05:5910:59
Sunset19:4800:48
Evening civil twilight20:1601:16

Current date and time
Zulu (UTC)  12-May-2021 05:25:38
Local (UTC-5)  12-May-2021 00:25:38
 
METAR
KUOX 
25nm NW 
120455Z AUTO 10010G17KT 060V120 10SM FEW065 OVC090 13/12 A3006 RMK AO2 PWINO
KTUP 
32nm NE 
120453Z AUTO 06007KT 10SM -RA OVC110 15/12 A3010 RMK AO2 SLP188 P0005 T01500122
KPMU 
36nm NW 
120455Z AUTO 35007KT 10SM FEW049 SCT075 BKN100 14/13 A3008 RMK AO2
K5A6 
38nm SW 
120455Z AUTO 08003KT 10SM -RA BKN010 OVC110 13/13 A3009 RMK AO2 P0003 T01340125
KSTF 
41nm SE 
120455Z AUTO 04008KT 10SM -RA SCT009 SCT025 OVC110 12/12 A3012 RMK AO2 P0004
KM40 
42nm E 
120455Z AUTO 03005KT 7SM -DZ SCT036 BKN065 OVC120 14/14 A3013 RMK AO2
KCBM 
48nm SE 
120456Z AUTO 03006KT 10SM -RA OVC095 14/13 A3010 RMK AO2 SLP195 P0005 T01440128 $
KGWO 
49nm SW 
120453Z AUTO 10018G28KT 10SM BKN110 15/13 A3002 RMK AO2 PK WND 10028/0445 RAE14 PRESFR SLP163 P0000 T01500128
KGTR 
50nm SE 
120456Z AUTO 03011KT 10SM -RA FEW012 BKN028 OVC100 14/14 A3012 RMK AO2 SLP205 P0000 T01390139
TAF
KTUP 
32nm NE 
112054Z 1121/1218 04008KT P6SM VCSH BKN020 OVC035 FM120100 05012KT 4SM -RA BR OVC015 FM121000 05014G20KT P6SM SCT009 OVC025
NOTAMs
Click for the latest NOTAMs
NOTAMs are issued by the DoD/FAA and will open in a separate window not controlled by AirNav.

 

 
 

Would you like to see your business listed on this page?

 If your business provides an interesting product or service to pilots, flight crews, aircraft, or users of the Hasting Airpark, you should consider listing it here.  To start the listing process, click on the button below
 
Add a business
 

Other Pages about Hasting Airpark

Update a link
 
Copyright © AirNav, LLC. All rights reserved. Privacy Policy  Contact